GLO1337 SBDN-SBSP
Flight info
| Callsign | GLO1337 |
|---|---|
| Flight time | 0h 52m |
| Altitude | 31000 |
| Route | TOPUX DCT ESILO UZ65 EDMOX DCT UTLOT |
| Aircraft | B737/M-SDFGIKLORWXY/LB1 |
Departure
| Time | 2026-04-25 13:58 |
|---|---|
| Airport | Presidente Prudente Airport (SBDN) |
Arrival
| Time | 2026-04-25 14:50 |
|---|---|
| Airport | Congonhas–Deputado Freitas Nobre Airport (SBSP) |
| Time | Latitude | Longitude | Altitude | Speed | Heading |
|---|---|---|---|---|---|
| 2026-04-25 13:36 | -22.17793 | -51.41753 | 1486 ft | 0 kts | 188° |
| 2026-04-25 13:51 | -22.17770 | -51.41751 | 1486 ft | 4 kts | 172° |
| 2026-04-25 13:51 | -22.17747 | -51.41762 | 1469 ft | 4 kts | 126° |
| 2026-04-25 13:51 | -22.17741 | -51.41777 | 1483 ft | 3 kts | 98° |
| 2026-04-25 13:52 | -22.17741 | -51.41779 | 1483 ft | 3 kts | 98° |
| 2026-04-25 13:53 | -22.17741 | -51.41775 | 1483 ft | 3 kts | 99° |
| 2026-04-25 13:54 | -22.17749 | -51.41722 | 1476 ft | 10 kts | 98° |
| 2026-04-25 13:54 | -22.17761 | -51.41644 | 1479 ft | 10 kts | 99° |
| 2026-04-25 13:54 | -22.17769 | -51.41568 | 1481 ft | 10 kts | 88° |
| 2026-04-25 13:54 | -22.17746 | -51.41501 | 1480 ft | 8 kts | 53° |
| 2026-04-25 13:55 | -22.17735 | -51.41489 | 1487 ft | 0 kts | 39° |
| 2026-04-25 13:56 | -22.17730 | -51.41485 | 1487 ft | 3 kts | 37° |
| 2026-04-25 13:56 | -22.17689 | -51.41476 | 1479 ft | 8 kts | 351° |
| 2026-04-25 13:56 | -22.17644 | -51.41505 | 1485 ft | 7 kts | 316° |
| 2026-04-25 13:57 | -22.17629 | -51.41562 | 1473 ft | 17 kts | 278° |
| 2026-04-25 13:57 | -22.17601 | -51.41773 | 1481 ft | 68 kts | 278° |
| 2026-04-25 13:57 | -22.17444 | -51.42889 | 1451 ft | 155 kts | 279° |
| 2026-04-25 13:57 | -22.17260 | -51.44157 | 1806 ft | 178 kts | 279° |
| 2026-04-25 13:58 | -22.17080 | -51.45521 | 2480 ft | 188 kts | 279° |
| 2026-04-25 13:58 | -22.16884 | -51.46999 | 3041 ft | 213 kts | 279° |
| 2026-04-25 13:58 | -22.16677 | -51.48634 | 3781 ft | 224 kts | 279° |
| 2026-04-25 13:58 | -22.16620 | -51.50328 | 4690 ft | 230 kts | 259° |
| 2026-04-25 13:59 | -22.17357 | -51.51846 | 5699 ft | 234 kts | 226° |
| 2026-04-25 13:59 | -22.18791 | -51.52719 | 6619 ft | 243 kts | 198° |
| 2026-04-25 13:59 | -22.20474 | -51.53080 | 7505 ft | 248 kts | 190° |
| 2026-04-25 13:59 | -22.22194 | -51.53331 | 8444 ft | 251 kts | 189° |
| 2026-04-25 14:00 | -22.23911 | -51.53574 | 9366 ft | 253 kts | 186° |
| 2026-04-25 14:00 | -22.25654 | -51.53305 | 10250 ft | 257 kts | 157° |
| 2026-04-25 14:00 | -22.27073 | -51.52151 | 11090 ft | 261 kts | 127° |
| 2026-04-25 14:00 | -22.27798 | -51.50278 | 11434 ft | 288 kts | 96° |
| 2026-04-25 14:01 | -22.27890 | -51.48009 | 11700 ft | 317 kts | 91° |
| 2026-04-25 14:01 | -22.27875 | -51.45527 | 11954 ft | 342 kts | 90° |
| 2026-04-25 14:01 | -22.27835 | -51.42915 | 12613 ft | 352 kts | 90° |
| 2026-04-25 14:01 | -22.27797 | -51.40256 | 13458 ft | 356 kts | 90° |
| 2026-04-25 14:02 | -22.27768 | -51.37559 | 14263 ft | 361 kts | 90° |
| 2026-04-25 14:02 | -22.27749 | -51.34833 | 15050 ft | 366 kts | 90° |
| 2026-04-25 14:02 | -22.27738 | -51.32060 | 15803 ft | 372 kts | 90° |
| 2026-04-25 14:02 | -22.27736 | -51.31111 | 16059 ft | 374 kts | 90° |
| 2026-04-25 14:03 | -22.27729 | -51.26393 | 17307 ft | 382 kts | 90° |
| 2026-04-25 14:03 | -22.27727 | -51.23506 | 18000 ft | 387 kts | 90° |
| 2026-04-25 14:03 | -22.27725 | -51.20578 | 18671 ft | 393 kts | 90° |
| 2026-04-25 14:03 | -22.27723 | -51.17607 | 19313 ft | 398 kts | 90° |
| 2026-04-25 14:04 | -22.27721 | -51.14595 | 19973 ft | 402 kts | 90° |
| 2026-04-25 14:04 | -22.27718 | -51.11555 | 20614 ft | 406 kts | 90° |
| 2026-04-25 14:04 | -22.27715 | -51.08520 | 21206 ft | 411 kts | 90° |
| 2026-04-25 14:04 | -22.27711 | -51.05422 | 21795 ft | 415 kts | 90° |
| 2026-04-25 14:05 | -22.27707 | -51.02287 | 22349 ft | 420 kts | 90° |
| 2026-04-25 14:05 | -22.27701 | -50.99125 | 22880 ft | 424 kts | 90° |
| 2026-04-25 14:05 | -22.27695 | -50.95927 | 23384 ft | 427 kts | 90° |
| 2026-04-25 14:05 | -22.27689 | -50.92703 | 23896 ft | 431 kts | 91° |
| 2026-04-25 14:06 | -22.27682 | -50.89451 | 24361 ft | 435 kts | 91° |
| 2026-04-25 14:06 | -22.27674 | -50.86174 | 24809 ft | 439 kts | 90° |
| 2026-04-25 14:06 | -22.27665 | -50.82859 | 25251 ft | 442 kts | 90° |
| 2026-04-25 14:06 | -22.27655 | -50.79524 | 25666 ft | 446 kts | 90° |
| 2026-04-25 14:07 | -22.27645 | -50.76162 | 26084 ft | 450 kts | 90° |
| 2026-04-25 14:07 | -22.27633 | -50.72773 | 26518 ft | 453 kts | 90° |
| 2026-04-25 14:07 | -22.27621 | -50.69359 | 26930 ft | 457 kts | 90° |
| 2026-04-25 14:07 | -22.27609 | -50.65920 | 27339 ft | 460 kts | 90° |
| 2026-04-25 14:08 | -22.27595 | -50.62451 | 27759 ft | 463 kts | 90° |
| 2026-04-25 14:08 | -22.27580 | -50.58965 | 28156 ft | 466 kts | 90° |
| 2026-04-25 14:08 | -22.27565 | -50.55448 | 28522 ft | 470 kts | 90° |
| 2026-04-25 14:08 | -22.27549 | -50.51912 | 28887 ft | 473 kts | 90° |
| 2026-04-25 14:09 | -22.27532 | -50.48347 | 29268 ft | 476 kts | 90° |
| 2026-04-25 14:09 | -22.27515 | -50.44758 | 29639 ft | 479 kts | 90° |
| 2026-04-25 14:09 | -22.27611 | -50.41156 | 29974 ft | 482 kts | 99° |
| 2026-04-25 14:10 | -22.29132 | -50.34127 | 30718 ft | 485 kts | 105° |
| 2026-04-25 14:10 | -22.29995 | -50.30602 | 31057 ft | 488 kts | 105° |
| 2026-04-25 14:10 | -22.30856 | -50.27065 | 31067 ft | 481 kts | 105° |
| 2026-04-25 14:10 | -22.31675 | -50.23627 | 31081 ft | 465 kts | 105° |
| 2026-04-25 14:11 | -22.32451 | -50.20297 | 31063 ft | 450 kts | 105° |
| 2026-04-25 14:11 | -22.33945 | -50.13763 | 31098 ft | 448 kts | 104° |
| 2026-04-25 14:12 | -22.35428 | -50.07219 | 31111 ft | 449 kts | 104° |
| 2026-04-25 14:12 | -22.36910 | -50.00661 | 31109 ft | 450 kts | 104° |
| 2026-04-25 14:13 | -22.38393 | -49.94093 | 31095 ft | 449 kts | 104° |
| 2026-04-25 14:13 | -22.39870 | -49.87546 | 31107 ft | 448 kts | 104° |
| 2026-04-25 14:14 | -22.41340 | -49.81012 | 31103 ft | 447 kts | 104° |
| 2026-04-25 14:14 | -22.42807 | -49.74478 | 31103 ft | 447 kts | 104° |
| 2026-04-25 14:15 | -22.44270 | -49.67951 | 31106 ft | 447 kts | 104° |
| 2026-04-25 14:15 | -22.45732 | -49.61414 | 31099 ft | 447 kts | 104° |
| 2026-04-25 14:16 | -22.47184 | -49.54907 | 31108 ft | 448 kts | 104° |
| 2026-04-25 14:16 | -22.48645 | -49.48350 | 31098 ft | 448 kts | 104° |
| 2026-04-25 14:17 | -22.50104 | -49.41789 | 31106 ft | 449 kts | 104° |
| 2026-04-25 14:17 | -22.52064 | -49.35397 | 31112 ft | 447 kts | 115° |
| 2026-04-25 14:18 | -22.54586 | -49.29254 | 31101 ft | 447 kts | 116° |
| 2026-04-25 14:18 | -22.57139 | -49.23112 | 31105 ft | 448 kts | 116° |
| 2026-04-25 14:19 | -22.59662 | -49.16936 | 31093 ft | 448 kts | 116° |
| 2026-04-25 14:19 | -22.62155 | -49.10764 | 31104 ft | 448 kts | 116° |
| 2026-04-25 14:20 | -22.64643 | -49.04580 | 31100 ft | 448 kts | 115° |
| 2026-04-25 14:20 | -22.67114 | -48.98429 | 31098 ft | 448 kts | 116° |
| 2026-04-25 14:21 | -22.69598 | -48.92240 | 31104 ft | 448 kts | 116° |
| 2026-04-25 14:21 | -22.71663 | -48.87090 | 31104 ft | 448 kts | 116° |
| 2026-04-25 14:22 | -22.74564 | -48.79845 | 31104 ft | 448 kts | 116° |
| 2026-04-25 14:22 | -22.76625 | -48.74694 | 31106 ft | 448 kts | 116° |
| 2026-04-25 14:23 | -22.79105 | -48.68483 | 31099 ft | 449 kts | 116° |
| 2026-04-25 14:23 | -22.81583 | -48.62271 | 31105 ft | 449 kts | 116° |
| 2026-04-25 14:24 | -22.84057 | -48.56062 | 31102 ft | 449 kts | 116° |
| 2026-04-25 14:24 | -22.86517 | -48.49880 | 31105 ft | 448 kts | 116° |
| 2026-04-25 14:25 | -22.88984 | -48.43669 | 31108 ft | 448 kts | 116° |
| 2026-04-25 14:25 | -22.91450 | -48.37455 | 31106 ft | 448 kts | 116° |
| 2026-04-25 14:26 | -22.93913 | -48.31238 | 31113 ft | 448 kts | 116° |
| 2026-04-25 14:26 | -22.96377 | -48.25012 | 31112 ft | 449 kts | 116° |
| 2026-04-25 14:27 | -22.98840 | -48.18779 | 31117 ft | 449 kts | 116° |
| 2026-04-25 14:27 | -23.01300 | -48.12546 | 31102 ft | 449 kts | 116° |
| 2026-04-25 14:28 | -23.03779 | -48.06261 | 31118 ft | 465 kts | 116° |
| 2026-04-25 14:28 | -23.06375 | -47.99674 | 31116 ft | 483 kts | 115° |
| 2026-04-25 14:28 | -23.07713 | -47.96275 | 30739 ft | 496 kts | 115° |
| 2026-04-25 14:29 | -23.09071 | -47.92817 | 30194 ft | 496 kts | 115° |
| 2026-04-25 14:29 | -23.10416 | -47.89383 | 29591 ft | 491 kts | 115° |
| 2026-04-25 14:29 | -23.11743 | -47.85991 | 28983 ft | 486 kts | 115° |
| 2026-04-25 14:29 | -23.13057 | -47.82631 | 28362 ft | 480 kts | 115° |
| 2026-04-25 14:30 | -23.14357 | -47.79309 | 27751 ft | 475 kts | 115° |
| 2026-04-25 14:30 | -23.16916 | -47.72765 | 26524 ft | 466 kts | 115° |
| 2026-04-25 14:30 | -23.18177 | -47.69539 | 25912 ft | 461 kts | 115° |
| 2026-04-25 14:31 | -23.19426 | -47.66342 | 25302 ft | 457 kts | 115° |
| 2026-04-25 14:31 | -23.20661 | -47.63178 | 24694 ft | 452 kts | 115° |
| 2026-04-25 14:31 | -23.21882 | -47.60048 | 24093 ft | 448 kts | 115° |
| 2026-04-25 14:31 | -23.23091 | -47.56945 | 23489 ft | 444 kts | 115° |
| 2026-04-25 14:32 | -23.24079 | -47.54409 | 22993 ft | 440 kts | 115° |
| 2026-04-25 14:32 | -23.25270 | -47.51350 | 22397 ft | 436 kts | 115° |
| 2026-04-25 14:33 | -23.26445 | -47.48330 | 21794 ft | 432 kts | 115° |
| 2026-04-25 14:33 | -23.27609 | -47.45335 | 21206 ft | 427 kts | 115° |
| 2026-04-25 14:33 | -23.28759 | -47.42375 | 20612 ft | 423 kts | 115° |
| 2026-04-25 14:33 | -23.29901 | -47.39435 | 20020 ft | 419 kts | 115° |
| 2026-04-25 14:34 | -23.31014 | -47.36565 | 19444 ft | 415 kts | 114° |
| 2026-04-25 14:34 | -23.32130 | -47.33687 | 18867 ft | 411 kts | 114° |
| 2026-04-25 14:34 | -23.33236 | -47.30834 | 18281 ft | 407 kts | 114° |
| 2026-04-25 14:34 | -23.34332 | -47.28002 | 17704 ft | 403 kts | 114° |
| 2026-04-25 14:35 | -23.35415 | -47.25205 | 17133 ft | 400 kts | 114° |
| 2026-04-25 14:35 | -23.36488 | -47.22430 | 16561 ft | 396 kts | 114° |
| 2026-04-25 14:35 | -23.37550 | -47.19682 | 15997 ft | 392 kts | 114° |
| 2026-04-25 14:35 | -23.38602 | -47.16958 | 15431 ft | 388 kts | 114° |
| 2026-04-25 14:36 | -23.39642 | -47.14264 | 14853 ft | 384 kts | 114° |
| 2026-04-25 14:36 | -23.40674 | -47.11590 | 14309 ft | 381 kts | 114° |
| 2026-04-25 14:36 | -23.41691 | -47.08952 | 13760 ft | 376 kts | 114° |
| 2026-04-25 14:36 | -23.42267 | -47.07469 | 13466 ft | 373 kts | 115° |
| 2026-04-25 14:37 | -23.43912 | -47.04187 | 12790 ft | 364 kts | 123° |
| 2026-04-25 14:37 | -23.45281 | -47.01877 | 12237 ft | 360 kts | 125° |
| 2026-04-25 14:37 | -23.46648 | -46.99615 | 11696 ft | 356 kts | 125° |
| 2026-04-25 14:37 | -23.47998 | -46.97364 | 11160 ft | 353 kts | 124° |
| 2026-04-25 14:38 | -23.49326 | -46.95126 | 10611 ft | 351 kts | 124° |
| 2026-04-25 14:38 | -23.50617 | -46.92928 | 10452 ft | 336 kts | 124° |
| 2026-04-25 14:38 | -23.51660 | -46.91144 | 10302 ft | 326 kts | 124° |
| 2026-04-25 14:38 | -23.52704 | -46.89354 | 10174 ft | 316 kts | 124° |
| 2026-04-25 14:39 | -23.53841 | -46.87402 | 10106 ft | 302 kts | 124° |
| 2026-04-25 14:39 | -23.54957 | -46.85487 | 9683 ft | 302 kts | 124° |
| 2026-04-25 14:39 | -23.56088 | -46.83567 | 9393 ft | 297 kts | 127° |
| 2026-04-25 14:39 | -23.57530 | -46.82045 | 9232 ft | 286 kts | 149° |
| 2026-04-25 14:40 | -23.59226 | -46.80879 | 9177 ft | 288 kts | 150° |
| 2026-04-25 14:40 | -23.60929 | -46.79727 | 9130 ft | 287 kts | 150° |
| 2026-04-25 14:40 | -23.62607 | -46.78577 | 9122 ft | 284 kts | 150° |
| 2026-04-25 14:40 | -23.64283 | -46.77422 | 9111 ft | 284 kts | 150° |
| 2026-04-25 14:41 | -23.65973 | -46.76255 | 8897 ft | 290 kts | 150° |
| 2026-04-25 14:41 | -23.67677 | -46.75076 | 8684 ft | 289 kts | 150° |
| 2026-04-25 14:41 | -23.69365 | -46.73905 | 8413 ft | 287 kts | 150° |
| 2026-04-25 14:41 | -23.71043 | -46.72742 | 8127 ft | 283 kts | 150° |
| 2026-04-25 14:42 | -23.72688 | -46.71599 | 7899 ft | 278 kts | 150° |
| 2026-04-25 14:42 | -23.73763 | -46.70853 | 7766 ft | 277 kts | 150° |
| 2026-04-25 14:42 | -23.75939 | -46.69343 | 7476 ft | 277 kts | 150° |
| 2026-04-25 14:42 | -23.77544 | -46.68229 | 7257 ft | 277 kts | 149° |
| 2026-04-25 14:43 | -23.79167 | -46.67102 | 7061 ft | 273 kts | 149° |
| 2026-04-25 14:43 | -23.80712 | -46.66027 | 6957 ft | 252 kts | 150° |
| 2026-04-25 14:43 | -23.82140 | -46.65032 | 6794 ft | 234 kts | 150° |
| 2026-04-25 14:43 | -23.83445 | -46.64082 | 6638 ft | 220 kts | 140° |
| 2026-04-25 14:44 | -23.84170 | -46.62676 | 6398 ft | 215 kts | 96° |
| 2026-04-25 14:44 | -23.83845 | -46.61154 | 6212 ft | 206 kts | 54° |
| 2026-04-25 14:44 | -23.83027 | -46.59846 | 6020 ft | 213 kts | 54° |
| 2026-04-25 14:44 | -23.82202 | -46.58493 | 5867 ft | 213 kts | 53° |
| 2026-04-25 14:45 | -23.81228 | -46.57301 | 5662 ft | 208 kts | 35° |
| 2026-04-25 14:45 | -23.79993 | -46.56565 | 5520 ft | 198 kts | 13° |
| 2026-04-25 14:45 | -23.78684 | -46.56351 | 5386 ft | 184 kts | 356° |
| 2026-04-25 14:45 | -23.77436 | -46.56501 | 5137 ft | 179 kts | 345° |
| 2026-04-25 14:46 | -23.76263 | -46.56792 | 4987 ft | 173 kts | 344° |
| 2026-04-25 14:46 | -23.75143 | -46.57236 | 4855 ft | 169 kts | 333° |
| 2026-04-25 14:46 | -23.74092 | -46.57792 | 4747 ft | 161 kts | 331° |
| 2026-04-25 14:46 | -23.73165 | -46.58365 | 4686 ft | 148 kts | 328° |
| 2026-04-25 14:47 | -23.72329 | -46.58931 | 4504 ft | 137 kts | 327° |
| 2026-04-25 14:47 | -23.71783 | -46.59306 | 4472 ft | 138 kts | 327° |
| 2026-04-25 14:47 | -23.70698 | -46.60061 | 4266 ft | 140 kts | 327° |
| 2026-04-25 14:47 | -23.69889 | -46.60623 | 4099 ft | 136 kts | 327° |
| 2026-04-25 14:48 | -23.69080 | -46.61187 | 3915 ft | 139 kts | 327° |
| 2026-04-25 14:48 | -23.68270 | -46.61749 | 3738 ft | 137 kts | 328° |
| 2026-04-25 14:48 | -23.67468 | -46.62307 | 3545 ft | 136 kts | 327° |
| 2026-04-25 14:48 | -23.66671 | -46.62861 | 3375 ft | 137 kts | 328° |
| 2026-04-25 14:49 | -23.65918 | -46.63384 | 3205 ft | 135 kts | 328° |
| 2026-04-25 14:49 | -23.65120 | -46.63940 | 3023 ft | 136 kts | 328° |
| 2026-04-25 14:49 | -23.64329 | -46.64472 | 2824 ft | 136 kts | 328° |
| 2026-04-25 14:49 | -23.63522 | -46.65051 | 2672 ft | 139 kts | 326° |
| 2026-04-25 14:50 | -23.62787 | -46.65562 | 2607 ft | 97 kts | 328° |
| 2026-04-25 14:50 | -23.62444 | -46.65802 | 2602 ft | 48 kts | 327° |
| 2026-04-25 14:50 | -23.62248 | -46.65937 | 2599 ft | 19 kts | 328° |
| 2026-04-25 14:50 | -23.62198 | -46.66007 | 2595 ft | 11 kts | 262° |
| 2026-04-25 14:51 | -23.62258 | -46.66038 | 2599 ft | 11 kts | 154° |
| 2026-04-25 14:51 | -23.62312 | -46.65999 | 2599 ft | 9 kts | 146° |
| 2026-04-25 14:51 | -23.62364 | -46.65963 | 2599 ft | 9 kts | 152° |
| 2026-04-25 14:51 | -23.62415 | -46.65930 | 2600 ft | 8 kts | 149° |
| 2026-04-25 14:52 | -23.62464 | -46.65895 | 2600 ft | 9 kts | 146° |
| 2026-04-25 14:52 | -23.62509 | -46.65890 | 2600 ft | 7 kts | 227° |
| 2026-04-25 14:52 | -23.62532 | -46.65934 | 2599 ft | 5 kts | 237° |
| 2026-04-25 14:52 | -23.62538 | -46.65944 | 2599 ft | 0 kts | 237° |
| 2026-04-25 14:53 | -23.62540 | -46.65946 | 2599 ft | 0 kts | 237° |